createdAt,value
2017-08-05T00:00:43.809Z,65.50
2017-08-05T00:03:11.476Z,65.70
2017-08-05T00:05:39.198Z,65.50
2017-08-05T00:08:07.187Z,66.00
2017-08-05T00:10:34.858Z,66.20
2017-08-05T00:13:02.477Z,66.40
2017-08-05T00:15:30.101Z,66.70
2017-08-05T00:17:57.769Z,66.70
2017-08-05T00:20:25.396Z,66.90
2017-08-05T00:22:53.164Z,67.00
2017-08-05T00:25:20.840Z,67.40
2017-08-05T00:27:48.475Z,67.90
2017-08-05T00:30:16.103Z,67.70
2017-08-05T00:32:43.765Z,67.80
2017-08-05T00:35:11.403Z,68.20
2017-08-05T00:37:39.789Z,68.80
2017-08-05T00:40:08.268Z,69.30
2017-08-05T00:42:35.881Z,69.20
2017-08-05T00:45:03.522Z,69.40
2017-08-05T00:47:31.191Z,69.30
2017-08-05T00:49:58.814Z,70.20
2017-08-05T00:52:26.445Z,69.80
2017-08-05T00:54:54.113Z,69.30
2017-08-05T00:57:21.722Z,69.30
2017-08-05T00:59:49.342Z,69.30
2017-08-05T01:02:17.009Z,69.60
2017-08-05T01:04:44.622Z,70.00
2017-08-05T01:07:12.242Z,69.90
2017-08-05T01:09:40.089Z,70.40
2017-08-05T01:12:07.692Z,70.30
2017-08-05T01:14:35.297Z,70.40
2017-08-05T01:17:03.084Z,70.80
2017-08-05T01:19:30.700Z,70.80
2017-08-05T01:21:58.306Z,71.00
2017-08-05T01:24:26.159Z,70.00
2017-08-05T01:26:53.777Z,70.20
2017-08-05T01:29:21.398Z,70.40
2017-08-05T01:31:49.429Z,70.60
2017-08-05T01:34:17.044Z,70.30
2017-08-05T01:36:44.884Z,70.40
2017-08-05T01:39:12.577Z,70.20
2017-08-05T01:41:40.220Z,71.50
2017-08-05T01:44:07.870Z,70.80
2017-08-05T01:46:35.545Z,70.40
2017-08-05T01:49:03.395Z,70.00
2017-08-05T01:51:31.081Z,70.20
2017-08-05T01:53:59.452Z,70.90
2017-08-05T01:56:27.329Z,70.80
2017-08-05T01:58:55.097Z,69.70
2017-08-05T02:01:22.846Z,70.50
2017-08-05T02:03:50.506Z,70.80
2017-08-05T02:06:18.183Z,69.80
2017-08-05T02:08:45.876Z,70.30
2017-08-05T02:11:14.300Z,69.80
2017-08-05T02:13:41.993Z,70.20
2017-08-05T02:16:09.686Z,70.00
2017-08-05T02:18:37.309Z,68.10
2017-08-05T02:21:04.921Z,67.00
2017-08-05T02:23:32.622Z,66.30
2017-08-05T02:26:00.240Z,66.50
2017-08-05T02:28:27.875Z,66.60
2017-08-05T02:30:55.544Z,66.60
2017-08-05T02:33:23.160Z,66.60
2017-08-05T02:35:50.774Z,67.20
2017-08-05T02:38:18.441Z,68.40
2017-08-05T02:40:46.057Z,70.00
2017-08-05T02:43:13.674Z,69.20
2017-08-05T02:45:42.115Z,69.40
2017-08-05T02:48:10.185Z,69.40
2017-08-05T02:50:37.806Z,70.00
2017-08-05T02:53:05.473Z,70.80
2017-08-05T02:55:33.099Z,70.80
2017-08-05T02:58:00.718Z,72.00
2017-08-05T03:00:29.133Z,72.60
2017-08-05T03:02:56.750Z,72.40
2017-08-05T03:05:24.363Z,72.70
2017-08-05T03:07:52.025Z,73.80
2017-08-05T03:10:19.679Z,74.30
2017-08-05T03:12:47.309Z,76.30
2017-08-05T03:15:14.972Z,76.00
2017-08-05T03:17:42.589Z,75.90
2017-08-05T03:20:10.208Z,76.30
2017-08-05T03:22:37.885Z,76.60
2017-08-05T03:25:05.505Z,76.90
2017-08-05T03:27:33.116Z,78.10
2017-08-05T03:30:00.768Z,77.90
2017-08-05T03:32:28.380Z,78.40
2017-08-05T03:34:56.761Z,78.70
2017-08-05T03:37:25.492Z,79.70
2017-08-05T03:39:53.119Z,79.70
2017-08-05T03:42:20.991Z,79.40
2017-08-05T03:44:48.666Z,79.80
2017-08-05T03:47:16.277Z,80.60
2017-08-05T03:49:43.910Z,80.40
2017-08-05T03:52:11.578Z,80.70
2017-08-05T03:54:39.189Z,81.50
2017-08-05T03:57:06.809Z,81.20
2017-08-05T03:59:34.472Z,81.70
2017-08-05T04:02:02.084Z,82.00
2017-08-05T04:04:29.703Z,82.80
2017-08-05T04:06:57.355Z,83.20
2017-08-05T04:09:24.962Z,83.40
2017-08-05T04:11:52.585Z,83.20
2017-08-05T04:14:20.265Z,85.00
2017-08-05T04:16:47.897Z,84.50
2017-08-05T04:19:15.524Z,84.80
2017-08-05T04:21:43.193Z,85.10
2017-08-05T04:24:10.807Z,84.90
2017-08-05T04:26:38.412Z,85.10
2017-08-05T04:29:06.419Z,85.10
2017-08-05T04:31:34.070Z,86.10
2017-08-05T04:34:01.684Z,86.30
2017-08-05T04:36:29.714Z,86.90
2017-08-05T04:38:57.330Z,86.90
2017-08-05T04:41:24.970Z,87.70
2017-08-05T04:43:52.648Z,88.40
2017-08-05T04:46:21.036Z,89.00
2017-08-05T04:48:49.417Z,88.00
2017-08-05T04:51:18.134Z,87.70
2017-08-05T04:53:45.767Z,87.70
2017-08-05T04:56:13.392Z,87.70
2017-08-05T04:58:41.055Z,87.10
2017-08-05T05:01:08.688Z,88.40
2017-08-05T05:03:36.893Z,88.10
2017-08-05T05:06:04.557Z,87.80
2017-08-05T05:08:32.183Z,86.50
2017-08-05T05:10:59.800Z,86.10
2017-08-05T05:13:27.459Z,85.60
2017-08-05T05:15:55.410Z,85.10
2017-08-05T05:18:23.068Z,84.90
2017-08-05T05:20:50.736Z,82.90
2017-08-05T05:23:18.357Z,81.80
2017-08-05T05:25:46.161Z,79.80
2017-08-05T05:28:13.829Z,78.40
2017-08-05T05:30:41.474Z,76.50
2017-08-05T05:33:09.087Z,76.10
2017-08-05T05:35:36.741Z,73.50
2017-08-05T05:38:04.366Z,72.00
2017-08-05T05:40:31.973Z,69.50
2017-08-05T05:42:59.631Z,68.40
2017-08-05T05:45:28.072Z,67.00
2017-08-05T05:47:55.696Z,67.30
2017-08-05T05:50:23.376Z,65.50
2017-08-05T05:52:51.028Z,65.30
2017-08-05T05:55:18.650Z,62.10
2017-08-05T05:57:46.320Z,63.90
2017-08-05T06:00:13.961Z,60.30
2017-08-05T06:02:41.585Z,60.40
2017-08-05T06:05:09.277Z,59.20
2017-08-05T06:07:36.888Z,58.80
2017-08-05T06:10:04.508Z,58.40
2017-08-05T06:12:32.168Z,58.10
2017-08-05T06:14:59.772Z,58.50
2017-08-05T06:17:27.396Z,59.10
2017-08-05T06:19:55.078Z,57.70
2017-08-05T06:22:22.693Z,57.60
2017-08-05T06:24:50.315Z,58.60
2017-08-05T06:27:18.000Z,59.50
2017-08-05T06:29:45.621Z,57.80
2017-08-05T06:32:13.242Z,56.80
2017-08-05T06:34:40.941Z,55.80
2017-08-05T06:37:08.554Z,56.20
2017-08-05T06:39:36.177Z,54.80
2017-08-05T06:42:03.857Z,54.30
2017-08-05T06:44:31.470Z,53.70
2017-08-05T06:46:59.089Z,54.00
2017-08-05T06:49:27.533Z,53.60
2017-08-05T06:51:55.151Z,53.60
2017-08-05T06:54:22.864Z,55.50
2017-08-05T06:56:50.541Z,54.10
2017-08-05T06:59:18.168Z,54.60
2017-08-05T07:01:45.781Z,55.90
2017-08-05T07:04:13.466Z,55.40
2017-08-05T07:06:41.113Z,53.10
2017-08-05T07:09:08.746Z,53.20
2017-08-05T07:11:36.415Z,53.00
2017-08-05T07:14:04.162Z,53.10
2017-08-05T07:16:31.970Z,52.50
2017-08-05T07:18:59.760Z,54.50
2017-08-05T07:21:27.387Z,53.70
2017-08-05T07:23:55.013Z,53.20
2017-08-05T07:26:23.298Z,54.20
2017-08-05T07:28:51.103Z,52.70
2017-08-05T07:31:20.038Z,51.80
2017-08-05T07:33:47.698Z,51.70
2017-08-05T07:36:15.398Z,52.10
2017-08-05T07:38:43.130Z,53.50
2017-08-05T07:41:10.817Z,52.60
2017-08-05T07:43:38.445Z,51.50
2017-08-05T07:46:06.065Z,51.00
2017-08-05T07:48:34.493Z,50.90
2017-08-05T07:51:02.121Z,50.90
2017-08-05T07:53:29.733Z,51.80
2017-08-05T07:55:57.413Z,53.80
2017-08-05T07:58:25.042Z,52.10
2017-08-05T08:00:52.672Z,51.10
2017-08-05T08:03:20.343Z,51.00
2017-08-05T08:05:47.956Z,51.40
2017-08-05T08:08:15.569Z,50.60
2017-08-05T08:10:43.467Z,52.10
2017-08-05T08:13:11.084Z,52.10
2017-08-05T08:15:38.700Z,52.60
2017-08-05T08:18:06.458Z,52.30
2017-08-05T08:20:34.084Z,53.60
2017-08-05T08:23:01.697Z,54.00
2017-08-05T08:25:29.422Z,52.00
2017-08-05T08:27:57.045Z,52.50
2017-08-05T08:30:24.683Z,52.90
2017-08-05T08:32:52.361Z,52.10
2017-08-05T08:35:19.976Z,49.80
2017-08-05T08:37:47.872Z,51.60
2017-08-05T08:40:15.553Z,51.30
2017-08-05T08:42:43.172Z,51.10
2017-08-05T08:45:11.350Z,51.60
2017-08-05T08:47:39.010Z,51.20
2017-08-05T08:50:06.629Z,52.80
2017-08-05T08:52:34.251Z,51.10
2017-08-05T08:55:01.912Z,51.20
2017-08-05T08:57:29.517Z,52.90
2017-08-05T08:59:57.141Z,50.30
2017-08-05T09:02:24.813Z,50.10
2017-08-05T09:04:52.421Z,52.20
2017-08-05T09:07:20.844Z,50.80
2017-08-05T09:09:48.893Z,50.80
2017-08-05T09:12:16.593Z,50.30
2017-08-05T09:14:44.222Z,49.10
2017-08-05T09:17:11.905Z,50.10
2017-08-05T09:19:39.893Z,51.60
2017-08-05T09:22:07.511Z,49.60
2017-08-05T09:24:35.180Z,50.30
2017-08-05T09:27:02.797Z,49.40
2017-08-05T09:29:30.429Z,50.30
2017-08-05T09:31:58.084Z,50.90
2017-08-05T09:34:25.702Z,50.00
2017-08-05T09:36:53.316Z,49.30
2017-08-05T09:39:21.092Z,48.90
2017-08-05T09:41:48.696Z,50.70
2017-08-05T09:44:16.315Z,50.60
2017-08-05T09:46:43.972Z,50.00
2017-08-05T09:49:11.597Z,49.00
2017-08-05T09:51:39.221Z,49.70
2017-08-05T09:54:07.159Z,47.10
2017-08-05T09:56:34.775Z,48.30
2017-08-05T09:59:02.400Z,48.40
2017-08-05T10:01:30.367Z,48.20
2017-08-05T10:03:59.153Z,46.70
2017-08-05T10:06:28.126Z,47.50
2017-08-05T10:08:56.838Z,47.60
2017-08-05T10:11:25.481Z,47.70
2017-08-05T10:13:53.755Z,48.20
2017-08-05T10:16:22.146Z,48.00
2017-08-05T10:18:50.299Z,48.10
2017-08-05T10:21:18.014Z,48.90
2017-08-05T10:23:47.183Z,50.10
2017-08-05T10:26:15.077Z,50.10
2017-08-05T10:28:43.259Z,49.90
2017-08-05T10:31:10.937Z,48.40
2017-08-05T10:33:38.577Z,48.50
2017-08-05T10:36:06.446Z,48.50
2017-08-05T10:38:34.121Z,49.50
2017-08-05T10:41:01.749Z,49.70
2017-08-05T10:43:29.356Z,49.80
2017-08-05T10:45:57.036Z,50.50
2017-08-05T10:48:24.653Z,50.00
2017-08-05T10:50:52.260Z,48.30
2017-08-05T10:53:19.941Z,49.90
2017-08-05T10:55:47.559Z,49.70
2017-08-05T10:58:15.176Z,48.60
2017-08-05T11:00:42.836Z,50.00
2017-08-05T11:03:10.477Z,49.60
2017-08-05T11:05:38.405Z,49.40
2017-08-05T11:08:06.241Z,50.00
2017-08-05T11:10:33.893Z,50.80
2017-08-05T11:13:01.508Z,49.90
2017-08-05T11:15:29.185Z,49.20
2017-08-05T11:17:56.797Z,48.60
2017-08-05T11:20:24.424Z,50.70
2017-08-05T11:22:52.853Z,49.40
2017-08-05T11:25:20.482Z,49.30
2017-08-05T11:27:48.101Z,50.50
2017-08-05T11:30:15.769Z,52.60
2017-08-05T11:32:43.387Z,51.10
2017-08-05T11:35:11.065Z,52.60
2017-08-05T11:37:38.733Z,51.80
2017-08-05T11:40:06.350Z,51.30
2017-08-05T11:42:33.969Z,52.80
2017-08-05T11:45:01.625Z,52.30
2017-08-05T11:47:29.248Z,51.70
2017-08-05T11:49:56.866Z,53.20
2017-08-05T11:52:24.538Z,53.30
2017-08-05T11:54:52.270Z,52.00
2017-08-05T11:57:19.895Z,52.50
2017-08-05T11:59:47.570Z,51.10
2017-08-05T12:02:15.212Z,52.10
2017-08-05T12:04:43.584Z,52.10
2017-08-05T12:07:12.232Z,51.60
2017-08-05T12:09:39.851Z,51.40
2017-08-05T12:12:07.763Z,51.10
2017-08-05T12:14:35.432Z,53.00
2017-08-05T12:17:03.053Z,51.30
2017-08-05T12:19:30.673Z,53.20
2017-08-05T12:21:58.329Z,51.70
2017-08-05T12:24:26.065Z,50.70
2017-08-05T12:26:53.689Z,50.40
2017-08-05T12:29:21.368Z,51.40
2017-08-05T12:31:49.056Z,52.00
2017-08-05T12:34:16.677Z,50.80
2017-08-05T12:36:44.349Z,53.40
2017-08-05T12:39:11.978Z,51.70
2017-08-05T12:41:39.583Z,51.50
2017-08-05T12:44:07.791Z,51.50
2017-08-05T12:46:35.560Z,49.90
2017-08-05T12:49:03.323Z,51.50
2017-08-05T12:51:30.986Z,51.30
2017-08-05T12:53:58.606Z,50.90
2017-08-05T12:56:26.402Z,51.80
2017-08-05T12:58:54.339Z,50.00
2017-08-05T13:01:21.945Z,50.20
2017-08-05T13:03:49.700Z,50.50
2017-08-05T13:06:17.388Z,50.40
2017-08-05T13:08:45.006Z,50.10
2017-08-05T13:11:12.636Z,49.90
2017-08-05T13:13:41.338Z,50.50
2017-08-05T13:16:08.962Z,50.50
2017-08-05T13:18:37.531Z,50.50
2017-08-05T13:21:05.915Z,51.60
2017-08-05T13:23:33.536Z,49.90
2017-08-05T13:26:01.154Z,50.70
2017-08-05T13:28:29.153Z,50.00
2017-08-05T13:30:56.767Z,50.20
2017-08-05T13:33:24.381Z,50.60
2017-08-05T13:35:52.160Z,49.20
2017-08-05T13:38:19.772Z,50.70
2017-08-05T13:40:47.387Z,50.90
2017-08-05T13:43:15.044Z,50.30
2017-08-05T13:45:42.665Z,50.80
2017-08-05T13:48:10.293Z,50.90
2017-08-05T13:50:38.928Z,52.00
2017-08-05T13:53:06.551Z,51.40
2017-08-05T13:55:34.171Z,50.20
2017-08-05T13:58:02.077Z,50.50
2017-08-05T14:00:29.724Z,49.70
2017-08-05T14:02:57.353Z,50.50
2017-08-05T14:05:25.038Z,49.90
2017-08-05T14:07:52.654Z,51.10
2017-08-05T14:10:20.265Z,50.80
2017-08-05T14:12:47.957Z,49.60
2017-08-05T14:15:15.581Z,49.40
2017-08-05T14:17:43.188Z,50.10
2017-08-05T14:20:11.509Z,49.80
2017-08-05T14:22:40.034Z,50.50
2017-08-05T14:25:07.649Z,50.50
2017-08-05T14:27:35.565Z,49.40
2017-08-05T14:30:03.247Z,50.90
2017-08-05T14:32:30.864Z,50.60
2017-08-05T14:34:58.556Z,51.20
2017-08-05T14:37:26.196Z,50.90
2017-08-05T14:39:53.821Z,51.40
2017-08-05T14:42:21.493Z,51.50
2017-08-05T14:44:49.898Z,51.60
2017-08-05T14:47:17.699Z,51.60
2017-08-05T14:49:45.673Z,51.50
2017-08-05T14:52:13.284Z,51.90
2017-08-05T14:54:40.901Z,51.30
2017-08-05T14:57:08.562Z,51.10
2017-08-05T14:59:36.209Z,51.20
2017-08-05T15:02:03.855Z,52.30
2017-08-05T15:04:31.525Z,53.00
2017-08-05T15:06:59.145Z,53.20
2017-08-05T15:09:27.530Z,51.50
2017-08-05T15:11:55.955Z,52.10
2017-08-05T15:14:23.580Z,52.00
2017-08-05T15:16:51.194Z,50.40
2017-08-05T15:19:19.164Z,49.90
2017-08-05T15:21:46.777Z,50.60
2017-08-05T15:24:14.396Z,50.40
2017-08-05T15:26:42.051Z,49.30
2017-08-05T15:29:09.665Z,49.90
2017-08-05T15:31:37.281Z,49.60
2017-08-05T15:34:05.317Z,49.60
2017-08-05T15:36:32.961Z,51.20
2017-08-05T15:39:00.582Z,51.00
2017-08-05T15:41:28.833Z,50.40
2017-08-05T15:43:57.194Z,49.60
2017-08-05T15:46:25.320Z,49.20
2017-08-05T15:48:53.020Z,48.00
2017-08-05T15:51:20.641Z,48.20
2017-08-05T15:53:48.932Z,49.70
2017-08-05T15:56:17.061Z,49.10
2017-08-05T15:58:45.321Z,49.00
2017-08-05T16:01:14.606Z,48.50
2017-08-05T16:03:42.280Z,48.40
2017-08-05T16:06:10.176Z,49.10
2017-08-05T16:08:37.820Z,49.50
2017-08-05T16:11:05.504Z,48.70
2017-08-05T16:13:33.113Z,49.50
2017-08-05T16:16:01.870Z,49.90
2017-08-05T16:18:29.619Z,49.90
2017-08-05T16:20:57.282Z,49.50
2017-08-05T16:23:25.056Z,49.30
2017-08-05T16:25:52.715Z,48.80
2017-08-05T16:28:20.372Z,49.20
2017-08-05T16:30:47.995Z,49.10
2017-08-05T16:33:15.660Z,49.50
2017-08-05T16:35:43.272Z,49.80
2017-08-05T16:38:11.036Z,49.70
2017-08-05T16:40:38.810Z,49.90
2017-08-05T16:43:06.427Z,50.00
2017-08-05T16:45:34.048Z,50.20
2017-08-05T16:48:01.691Z,51.00
2017-08-05T16:50:29.350Z,50.50
2017-08-05T16:52:56.979Z,50.90
2017-08-05T16:55:24.641Z,50.80
2017-08-05T16:57:52.347Z,51.30
2017-08-05T17:00:19.985Z,51.10
2017-08-05T17:02:47.650Z,50.90
2017-08-05T17:05:15.472Z,50.60
2017-08-05T17:07:43.409Z,50.60
2017-08-05T17:10:11.068Z,50.30
2017-08-05T17:12:38.689Z,51.60
2017-08-05T17:15:06.317Z,51.60
2017-08-05T17:17:34.145Z,51.00
2017-08-05T17:20:02.023Z,51.80
2017-08-05T17:22:29.653Z,50.90
2017-08-05T17:24:57.887Z,50.60
2017-08-05T17:27:25.515Z,51.60
2017-08-05T17:29:53.278Z,50.60
2017-08-05T17:32:21.333Z,51.00
2017-08-05T17:34:48.955Z,50.90
2017-08-05T17:37:16.767Z,51.20
2017-08-05T17:39:44.648Z,51.00
2017-08-05T17:42:12.281Z,51.30
2017-08-05T17:44:39.933Z,51.40
2017-08-05T17:47:07.612Z,51.70
2017-08-05T17:49:35.313Z,52.30
2017-08-05T17:52:03.402Z,52.20
2017-08-05T17:56:50.012Z,52.10
2017-08-05T17:59:17.632Z,52.40
2017-08-05T18:01:45.537Z,53.10
2017-08-05T18:04:13.201Z,53.10
2017-08-05T18:06:40.805Z,52.90
2017-08-05T18:09:09.541Z,53.60
2017-08-05T18:11:37.293Z,53.60
2017-08-05T18:14:04.916Z,54.40
2017-08-05T18:16:32.747Z,54.10
2017-08-05T18:19:00.409Z,54.90
2017-08-05T18:21:28.025Z,54.80
2017-08-05T18:23:55.973Z,54.70
2017-08-05T18:26:24.027Z,54.70
2017-08-05T18:28:52.415Z,55.00
2017-08-05T18:31:20.161Z,55.30
2017-08-05T18:33:48.000Z,55.40
2017-08-05T18:36:15.732Z,55.80
2017-08-05T18:38:43.936Z,56.10
2017-08-05T18:41:11.791Z,56.40
2017-08-05T18:43:40.381Z,56.40
2017-08-05T18:46:08.029Z,56.80
2017-08-05T18:48:35.936Z,57.50
2017-08-05T18:51:04.088Z,57.20
2017-08-05T18:53:31.760Z,57.50
2017-08-05T18:55:59.502Z,58.00
2017-08-05T18:58:27.380Z,58.30
2017-08-05T19:00:55.207Z,63.50
2017-08-05T19:03:23.205Z,69.00
2017-08-05T19:05:51.124Z,72.60
2017-08-05T19:08:19.041Z,76.40
2017-08-05T19:10:46.741Z,79.30
2017-08-05T19:13:14.729Z,81.60
2017-08-05T19:15:42.800Z,83.70
2017-08-05T19:18:10.964Z,85.90
2017-08-05T19:20:38.855Z,90.10
2017-08-05T19:23:07.025Z,90.10
2017-08-05T19:25:34.766Z,90.30
2017-08-05T19:28:03.189Z,90.10
2017-08-05T19:30:30.954Z,90.50
2017-08-05T19:32:59.992Z,90.50
2017-08-05T19:35:27.758Z,90.50
2017-08-05T19:37:55.863Z,90.70
2017-08-05T19:40:23.931Z,83.10
2017-08-05T19:42:52.257Z,88.10
2017-08-05T19:45:21.202Z,91.90
2017-08-05T19:47:49.065Z,91.80
2017-08-05T19:50:16.856Z,93.50
2017-08-05T19:52:44.507Z,95.40
2017-08-05T19:55:12.376Z,96.90
2017-08-05T19:57:40.063Z,97.20
2017-08-05T20:00:08.721Z,97.40
2017-08-05T20:02:36.888Z,98.30
2017-08-05T20:05:04.536Z,98.70
2017-08-05T20:07:32.199Z,99.10
2017-08-05T20:10:00.097Z,99.00
2017-08-05T20:12:27.894Z,99.60
2017-08-05T20:14:56.425Z,99.40
2017-08-05T20:17:24.685Z,99.40
2017-08-05T20:19:52.693Z,99.60
2017-08-05T20:22:20.838Z,99.90
2017-08-05T20:24:48.818Z,99.90
2017-08-05T20:27:16.486Z,99.90
2017-08-05T20:29:44.469Z,99.90
2017-08-05T20:32:12.621Z,99.90
2017-08-05T20:34:40.831Z,99.00
2017-08-05T20:37:08.492Z,98.80
2017-08-05T20:39:36.531Z,96.70
2017-08-05T20:42:04.719Z,95.80
2017-08-05T20:44:32.431Z,95.60
2017-08-05T20:47:00.269Z,94.10
2017-08-05T20:49:27.898Z,94.90
2017-08-05T20:51:55.520Z,94.70
2017-08-05T20:54:24.242Z,94.50
2017-08-05T20:56:51.862Z,94.50
2017-08-05T20:59:19.483Z,95.20
2017-08-05T21:01:47.149Z,96.00
2017-08-05T21:04:14.765Z,96.20
2017-08-05T21:06:42.473Z,97.00
2017-08-05T21:09:12.115Z,97.50
2017-08-05T21:11:41.088Z,97.90
2017-08-05T21:14:10.312Z,98.90
2017-08-05T21:16:38.482Z,98.10
2017-08-05T21:19:07.265Z,97.20
2017-08-05T21:21:37.426Z,96.80
2017-08-05T21:24:06.611Z,97.20
2017-08-05T21:26:34.428Z,97.70
2017-08-05T21:29:02.404Z,98.10
2017-08-05T21:31:31.515Z,98.80
2017-08-05T21:34:00.538Z,99.00
2017-08-05T21:36:29.910Z,99.10
2017-08-05T21:38:59.418Z,99.20
2017-08-05T21:41:27.160Z,99.50
2017-08-05T21:43:55.141Z,99.50
2017-08-05T21:46:24.338Z,99.70
2017-08-05T21:48:52.678Z,99.90
2017-08-05T21:51:21.366Z,99.90
2017-08-05T21:53:54.205Z,99.90
2017-08-05T21:56:23.046Z,99.90
2017-08-05T21:58:51.553Z,99.90
2017-08-05T22:01:19.862Z,99.90
2017-08-05T22:03:49.348Z,99.90
2017-08-05T22:06:19.356Z,99.90
2017-08-05T22:08:47.056Z,98.70
2017-08-05T22:11:14.933Z,98.00
2017-08-05T22:13:43.227Z,98.30
2017-08-05T22:16:11.544Z,98.40
2017-08-05T22:18:39.986Z,98.80
2017-08-05T22:21:07.700Z,98.60
2017-08-05T22:23:36.090Z,97.10
2017-08-05T22:26:03.774Z,97.50
2017-08-05T22:28:32.005Z,98.00
2017-08-05T22:30:59.818Z,98.00
2017-08-05T22:33:31.544Z,97.40
2017-08-05T22:35:59.832Z,95.70
2017-08-05T22:38:27.684Z,94.40
2017-08-05T22:40:56.931Z,93.90
2017-08-05T22:43:26.702Z,94.10
2017-08-05T22:45:56.685Z,94.00
2017-08-05T22:48:24.360Z,94.10
2017-08-05T22:50:52.126Z,94.10
2017-08-05T22:53:19.786Z,94.40
2017-08-05T22:55:48.525Z,94.30
2017-08-05T22:58:18.113Z,92.90
2017-08-05T23:00:46.092Z,92.90
2017-08-05T23:03:13.892Z,94.00
2017-08-05T23:05:41.575Z,94.40
2017-08-05T23:08:09.623Z,94.20
2017-08-05T23:10:37.316Z,94.70
2017-08-05T23:13:05.790Z,95.10
2017-08-05T23:15:33.789Z,94.90
2017-08-05T23:18:01.408Z,94.90
2017-08-05T23:20:29.034Z,95.60
2017-08-05T23:22:57.469Z,95.50
2017-08-05T23:25:25.094Z,95.40
2017-08-05T23:27:52.756Z,93.70
2017-08-05T23:30:20.437Z,92.40
2017-08-05T23:32:48.057Z,92.40
2017-08-05T23:35:15.684Z,92.00
2017-08-05T23:37:43.448Z,92.40
2017-08-05T23:40:11.056Z,92.40
2017-08-05T23:42:38.676Z,92.60
2017-08-05T23:45:06.338Z,92.60
2017-08-05T23:47:33.957Z,92.80
2017-08-05T23:50:01.581Z,93.60
2017-08-05T23:52:29.397Z,93.00
2017-08-05T23:54:57.012Z,93.90
2017-08-05T23:57:24.624Z,94.50
2017-08-05T23:59:52.412Z,94.90
